Time;durP1;ratioP1;P1;durP2;ratioP2;P2;SDS_P1;SDS_P2;PMS_P1;PMS_P2;Temp;Humidity;BMP_temperature;BMP_pressure;BME280_temperature;BME280_humidity;BME280_pressure;Samples;Min_cycle;Max_cycle;Signal;HPM_P1;HPM_P2
2021/06/18 04:01:21;;;;;;;8.13;7.42;;;;;;;18.44;73.93;94650.19;835795;70;32048;-84
2021/06/18 04:31:15;;;;;;;14.03;11.73;;;;;;;20.74;68.91;94640.98;828117;71;32838;-87
2021/06/18 04:46:15;;;;;;;14.10;12.40;;;;;;;20.92;66.47;94641.90;836013;70;32763;-86
2021/06/18 05:01:18;;;;;;;19.27;15.50;;;;;;;20.27;69.08;94658.34;829627;71;32656;-85
2021/06/18 05:16:14;;;;;;;16.77;13.72;;;;;;;20.25;69.37;94657.36;829014;71;32586;-88
2021/06/18 05:31:16;;;;;;;15.80;13.03;;;;;;;20.41;69.47;94666.67;801854;71;32913;-86
2021/06/18 05:46:13;;;;;;;14.53;12.58;;;;;;;20.97;67.33;94672.31;825608;71;30834;-87
2021/06/18 06:01:18;;;;;;;15.30;13.20;;;;;;;22.80;62.38;94670.95;800707;74;33363;-87
2021/06/18 06:16:22;;;;;;;15.20;13.60;;;;;;;24.05;57.94;94649.45;828169;71;32738;-88
2021/06/18 06:31:29;;;;;;;13.70;12.30;;;;;;;25.46;55.80;94633.03;834378;71;32801;-88
2021/06/18 06:46:28;;;;;;;15.47;12.70;;;;;;;26.64;51.33;94630.27;830213;71;32776;-91
2021/06/18 07:01:11;;;;;;;12.30;10.93;;;;;;;27.96;48.84;94614.13;820325;71;29926;-87
2021/06/18 07:16:14;;;;;;;10.20;9.30;;;;;;;29.30;45.54;94594.91;802312;74;32960;-85
2021/06/18 07:31:09;;;;;;;7.37;6.73;;;;;;;30.66;41.36;94587.25;824624;71;30224;-87
2021/06/18 07:46:12;;;;;;;6.87;6.37;;;;;;;30.76;39.02;94575.45;828767;70;31975;-87
2021/06/18 08:01:19;;;;;;;5.67;5.20;;;;;;;30.95;37.99;94576.65;834598;71;31781;-87
2021/06/18 08:16:16;;;;;;;6.00;5.40;;;;;;;31.95;37.11;94576.44;829619;71;33944;-88
2021/06/18 08:31:15;;;;;;;5.50;5.00;;;;;;;32.62;34.05;94548.05;828789;71;32517;-86
2021/06/18 08:46:16;;;;;;;4.53;4.23;;;;;;;32.78;33.15;94549.95;795327;74;32167;-87
2021/06/18 09:16:16;;;;;;;4.40;4.10;;;;;;;33.28;31.13;94543.87;828251;71;32776;-88
2021/06/18 09:31:20;;;;;;;4.47;4.23;;;;;;;32.83;32.97;94535.84;830250;71;32837;-86
2021/06/18 09:46:36;;;;;;;5.53;5.23;;;;;;;32.24;34.53;94526.88;801203;74;32990;-91
2021/06/18 10:01:27;;;;;;;5.00;4.60;;;;;;;31.81;34.57;94480.42;822119;71;32739;-90
2021/06/18 10:31:50;;;;;;;5.20;4.80;;;;;;;31.90;34.36;94505.03;830493;71;32821;-91
2021/06/18 10:46:42;;;;;;;4.57;4.27;;;;;;;31.34;35.09;94501.24;832072;71;33143;-87
2021/06/18 11:16:56;;;;;;;5.60;5.20;;;;;;;29.85;38.25;94476.66;821859;71;33404;-86
2021/06/18 11:31:42;;;;;;;5.27;4.87;;;;;;;29.61;39.17;94454.83;829914;70;31419;-86
2021/06/18 11:46:37;;;;;;;5.67;5.17;;;;;;;28.81;41.63;94463.87;796181;72;32887;-87
2021/06/18 12:01:46;;;;;;;5.60;5.20;;;;;;;28.22;43.54;94466.27;815554;71;32919;-87
2021/06/18 13:16:26;;;;;;;5.00;4.67;;;;;;;28.06;41.91;94425.00;830782;71;32687;-86
2021/06/18 13:31:33;;;;;;;5.33;5.03;;;;;;;28.45;41.32;94454.85;828922;71;32728;-86
2021/06/18 13:46:27;;;;;;;5.07;4.63;;;;;;;28.46;41.24;94450.38;834820;71;32658;-86
2021/06/18 14:01:57;;;;;;;5.40;4.90;;;;;;;28.36;41.91;94440.47;816084;72;32795;-87
2021/06/18 14:16:29;;;;;;;4.70;4.40;;;;;;;28.06;42.85;94446.58;828019;71;32639;-88
2021/06/18 15:16:25;;;;;;;7.53;6.80;;;;;;;23.46;57.31;94416.20;834032;71;33127;-85
2021/06/18 15:31:10;;;;;;;7.97;6.27;;;;;;;23.56;56.91;94417.40;829322;71;30220;-82
2021/06/18 15:46:09;;;;;;;7.77;6.97;;;;;;;24.00;55.34;94407.92;829936;69;30284;-82
2021/06/18 16:01:14;;;;;;;19.33;13.70;;;;;;;24.70;55.53;94405.16;828580;71;32783;-82
2021/06/18 16:16:09;;;;;;;11.03;9.13;;;;;;;25.06;53.55;94386.97;795515;74;29757;-86
2021/06/18 16:31:15;;;;;;;5.77;5.37;;;;;;;24.97;51.37;94381.41;830362;71;32837;-81
2021/06/18 16:46:09;;;;;;;6.30;5.80;;;;;;;24.91;52.65;94382.94;788896;74;29827;-85
2021/06/18 17:01:10;;;;;;;6.40;5.57;;;;;;;24.88;53.23;94381.58;820521;71;29752;-85
2021/06/18 17:16:22;;;;;;;7.47;6.53;;;;;;;24.82;53.37;94375.84;834372;71;32807;-86
2021/06/18 17:31:13;;;;;;;7.57;6.93;;;;;;;24.49;54.11;94378.23;825797;71;32094;-85
2021/06/18 17:46:10;;;;;;;7.93;7.03;;;;;;;23.97;56.52;94373.08;828868;71;30343;-83
2021/06/18 18:01:10;;;;;;;7.50;6.80;;;;;;;23.55;56.90;94371.67;835444;71;30770;-83
2021/06/18 18:16:16;;;;;;;8.70;7.13;;;;;;;23.21;60.21;94377.18;805422;71;32811;-80
2021/06/18 18:31:15;;;;;;;7.23;6.63;;;;;;;23.12;59.07;94387.45;827521;71;32698;-77
2021/06/18 18:46:08;;;;;;;6.07;5.67;;;;;;;23.19;59.37;94408.91;828240;71;29688;-78
2021/06/18 19:01:10;;;;;;;7.10;6.50;;;;;;;23.10;58.91;94417.26;828295;71;31166;-83
2021/06/18 19:16:08;;;;;;;7.17;6.50;;;;;;;22.64;59.63;94406.09;829079;71;30163;-80
2021/06/18 19:31:15;;;;;;;7.67;6.97;;;;;;;23.45;59.24;94436.66;818884;71;33690;-79
2021/06/18 19:46:18;;;;;;;7.33;6.63;;;;;;;23.78;58.60;94437.09;827734;71;32688;-82
2021/06/18 20:01:08;;;;;;;8.10;7.40;;;;;;;23.85;58.34;94419.73;824633;71;29742;-77
2021/06/18 20:16:16;;;;;;;7.60;6.97;;;;;;;23.96;59.25;94400.44;827392;71;32727;-77
2021/06/18 20:31:08;;;;;;;7.10;6.60;;;;;;;23.86;58.56;94358.85;819819;70;29770;-76
2021/06/18 20:46:10;;;;;;;7.80;7.20;;;;;;;23.93;58.50;94379.77;828156;71;30330;-78
2021/06/18 21:16:28;;;;;;;8.00;7.40;;;;;;;24.00;59.15;94369.05;834145;71;32831;-78
2021/06/18 21:31:08;;;;;;;7.93;7.30;;;;;;;23.99;58.94;94354.13;829639;71;29693;-79
2021/06/18 21:46:14;;;;;;;8.33;7.63;;;;;;;23.89;59.16;94349.49;827708;71;33172;-77
2021/06/18 22:01:14;;;;;;;7.63;7.03;;;;;;;23.83;59.40;94339.52;827584;71;32633;-77
2021/06/18 22:16:11;;;;;;;7.43;6.73;;;;;;;23.82;59.10;94340.65;835528;71;29791;-77
2021/06/18 22:31:08;;;;;;;7.17;6.47;;;;;;;23.72;58.58;94344.78;828391;71;30256;-77
2021/06/18 22:46:15;;;;;;;6.33;5.83;;;;;;;23.67;58.36;94328.50;827436;71;33144;-78
2021/06/18 23:01:15;;;;;;;6.07;5.67;;;;;;;23.70;57.97;94321.61;828196;71;33093;-78
2021/06/18 23:16:14;;;;;;;6.63;6.17;;;;;;;23.69;58.01;94332.91;827570;71;32687;-78
2021/06/18 23:31:10;;;;;;;6.73;6.23;;;;;;;23.64;58.41;94323.11;828194;71;30806;-75
2021/06/18 23:46:10;;;;;;;7.93;7.30;;;;;;;23.71;59.04;94315.13;828135;71;30258;-76
